Soldotna, AK (99669)

9:22 PM AKDT on August 20, 2017 (GMT -0800)
W. Corral PWS | | Change Station

Elev 110 ft 60.49 °N, 151.08 °W | Updated 8 seconds ago

Light Rain
Light Rain
50.9 °F
Feels Like 50.9 °F
N
13.6
Wind Variable Wind from ESE
Gusts 13.6 mph

Today
High -- | Low -- °F
--% Chance of Precip.
Yesterday
High -- | Low -- °F
Precip. -- in
Pressure 29.63 in
Visibility 10.0 miles
Clouds Overcast 1000 ft
Dew Point 50 °F
Humidity 99%
Rainfall 0.45 in
Snow Depth Not available.
6:29 AM 9:43 PM
Waning Crescent, 0% visible
METAR PASX 210456Z AUTO 01009G19KT 10SM -RA OVC010 11/09 A2960 RMK AO2 CIG 008V013 SLP033 P0004 T01060094 $
Pressure 29.63 in
Visibility 10.0 miles
Clouds Overcast 1000 ft
Dew Point 50 °F
Humidity 99%
Rainfall 0.45 in
Snow Depth Not available.
6:29 AM 9:43 PM
Waning Crescent, 0% visible
METAR PASX 210456Z AUTO 01009G19KT 10SM -RA OVC010 11/09 A2960 RMK AO2 CIG 008V013 SLP033 P0004 T01060094 $

Get Severe Weather Alerts

Thanks for signing up!

Be on the lookout for a verification email in your inbox.

You'll start receiving the daily forecast at 6 AM.

×

10-Day Weather Forecast

Almanac

Astronomy

Aug. 20, 2017 Rise Set
Actual Time
Civil Twilight
Nautical Twilight
Astronomical Twilight
Moon
Length of Visible Light
Length of Day
Tomorrow will be .
, % of the Moon is Illuminated

Today's Extremes

State Highs State Lows

Community

WunderPhotos

Category 6

Welcome to Category 6. This is the collective home for Weather Underground's featured writeups by Dr. Jeff Masters (right), Bob Henson (left), Chris Burt, and other regular contributors.

Nearby

Air Quality

  Air Quality AQ Index Pollutant
Not available.

Snow Depth

Station Depth Elevation

Earthquake Activity

City Distance Mag. Time & Date
Minimum magnitude displayed is 2.5.

Coastal Water Temperatures

Place Temperature

Stations

Nearby Weather Stations

Station Location Temp. Windchill Dew Point Humidity Wind Precip. Elev Updated Type
                   

Watches & Warnings

There are currently no watches in effect.